createdAt,value
2022-11-01T00:01:30.721Z,93.79
2022-11-01T00:05:34.140Z,93.43
2022-11-01T00:09:38.833Z,93.56
2022-11-01T00:13:41.927Z,93.53
2022-11-01T00:17:44.989Z,93.35
2022-11-01T00:21:49.110Z,93.69
2022-11-01T00:25:54.240Z,93.34
2022-11-01T00:29:57.274Z,93.36
2022-11-01T00:34:03.795Z,93.14
2022-11-01T00:38:07.073Z,92.95
2022-11-01T00:42:13.225Z,93.36
2022-11-01T00:46:16.902Z,93.15
2022-11-01T00:50:20.601Z,93.50
2022-11-01T00:54:24.151Z,93.62
2022-11-01T00:58:28.827Z,93.40
2022-11-01T01:02:32.105Z,93.50
2022-11-01T01:06:35.204Z,93.42
2022-11-01T01:10:38.484Z,93.49
2022-11-01T01:14:43.729Z,93.50
2022-11-01T01:18:47.299Z,93.50
2022-11-01T01:22:50.490Z,93.50
2022-11-01T01:26:53.648Z,93.79
2022-11-01T01:30:58.254Z,93.05
2022-11-01T01:35:02.268Z,93.66
2022-11-01T01:39:05.584Z,93.68
2022-11-01T01:43:12.565Z,93.51
2022-11-01T01:47:23.001Z,93.71
2022-11-01T01:51:30.072Z,93.65
2022-11-01T01:55:39.392Z,93.69
2022-11-01T01:59:42.458Z,93.87
2022-11-01T02:03:48.794Z,93.74
2022-11-01T02:07:52.627Z,93.47
2022-11-01T02:11:55.988Z,93.63
2022-11-01T02:16:21.273Z,93.67
2022-11-01T02:20:43.920Z,94.01
2022-11-01T02:25:11.377Z,93.72
2022-11-01T02:29:29.311Z,93.90
2022-11-01T02:33:39.423Z,93.67
2022-11-01T02:37:51.768Z,93.81
2022-11-01T02:42:02.747Z,94.27
2022-11-01T02:46:21.246Z,94.44
2022-11-01T02:50:27.016Z,93.94
2022-11-01T02:54:34.752Z,93.74
2022-11-01T02:58:38.541Z,93.91
2022-11-01T03:02:44.466Z,93.82
2022-11-01T03:06:54.016Z,94.22
2022-11-01T03:11:08.096Z,93.99
2022-11-01T03:15:21.083Z,93.84
2022-11-01T03:19:39.182Z,93.94
2022-11-01T03:23:51.091Z,94.26
2022-11-01T03:27:55.836Z,94.12
2022-11-01T03:32:01.061Z,94.27
2022-11-01T03:36:13.469Z,94.12
2022-11-01T03:40:20.134Z,94.24
2022-11-01T03:44:23.602Z,94.31
2022-11-01T03:48:26.713Z,94.39
2022-11-01T03:52:29.715Z,94.27
2022-11-01T03:56:34.460Z,94.51
2022-11-01T04:00:39.955Z,94.57
2022-11-01T04:04:43.291Z,94.44
2022-11-01T04:08:46.380Z,94.39
2022-11-01T04:12:51.589Z,94.33
2022-11-01T04:17:20.474Z,94.40
2022-11-01T04:21:26.583Z,94.44
2022-11-01T04:25:30.251Z,94.32
2022-11-01T04:29:34.833Z,94.31
2022-11-01T04:33:38.171Z,94.41
2022-11-01T04:37:41.226Z,94.36
2022-11-01T04:41:44.332Z,94.39
2022-11-01T04:45:55.097Z,94.83
2022-11-01T04:49:58.110Z,94.67
2022-11-01T04:54:01.109Z,94.58
2022-11-01T04:58:06.659Z,94.56
2022-11-01T05:02:11.213Z,94.60
2022-11-01T05:06:14.237Z,94.43
2022-11-01T05:10:17.400Z,94.39
2022-11-01T05:14:20.442Z,94.34
2022-11-01T05:18:24.924Z,94.25
2022-11-01T05:22:28.047Z,94.89
2022-11-01T05:26:31.097Z,94.71
2022-11-01T05:30:34.219Z,94.84
2022-11-01T05:34:38.709Z,94.59
2022-11-01T05:38:41.744Z,94.76
2022-11-01T05:42:44.983Z,94.67
2022-11-01T05:46:48.176Z,94.52
2022-11-01T05:50:52.705Z,94.51
2022-11-01T05:54:55.699Z,94.73
2022-11-01T05:58:58.738Z,94.67
2022-11-01T06:03:02.343Z,94.43
2022-11-01T06:07:07.007Z,94.32
2022-11-01T06:11:11.441Z,94.00
2022-11-01T06:15:14.549Z,94.26
2022-11-01T06:19:17.650Z,94.20
2022-11-01T06:23:22.082Z,94.26
2022-11-01T06:27:25.173Z,94.36
2022-11-01T06:31:28.201Z,94.58
2022-11-01T06:35:31.290Z,94.35
2022-11-01T06:39:36.721Z,94.90
2022-11-01T06:43:40.315Z,94.54
2022-11-01T06:47:48.211Z,94.47
2022-11-01T06:51:51.290Z,94.58
2022-11-01T06:55:55.685Z,94.23
2022-11-01T06:59:58.731Z,94.37
2022-11-01T07:04:01.883Z,94.42
2022-11-01T07:08:07.010Z,94.31
2022-11-01T07:12:11.426Z,94.14
2022-11-01T07:16:14.822Z,94.56
2022-11-01T07:20:17.821Z,94.28
2022-11-01T07:24:21.084Z,94.08
2022-11-01T07:28:26.161Z,93.66
2022-11-01T07:32:29.170Z,93.65
2022-11-01T07:36:32.237Z,93.81
2022-11-01T07:40:35.219Z,94.03
2022-11-01T07:44:39.639Z,94.21
2022-11-01T07:48:42.744Z,94.25
2022-11-01T07:52:45.979Z,94.00
2022-11-01T07:56:49.339Z,94.13
2022-11-01T08:00:53.903Z,94.17
2022-11-01T08:04:57.096Z,93.71
2022-11-01T08:09:00.075Z,93.97
2022-11-01T08:13:04.784Z,93.99
2022-11-01T08:17:09.911Z,93.79
2022-11-01T08:21:18.690Z,93.82
2022-11-01T08:25:22.337Z,93.71
2022-11-01T08:29:25.331Z,93.95
2022-11-01T08:33:29.768Z,93.71
2022-11-01T08:37:32.885Z,94.06
2022-11-01T08:41:37.425Z,93.85
2022-11-01T08:45:40.843Z,93.61
2022-11-01T08:49:45.791Z,93.13
2022-11-01T08:53:48.792Z,92.73
2022-11-01T08:57:52.357Z,92.61
2022-11-01T09:01:55.618Z,92.62
2022-11-01T09:06:00.269Z,92.53
2022-11-01T09:10:03.496Z,92.70
2022-11-01T09:14:06.524Z,92.66
2022-11-01T09:18:09.764Z,92.71
2022-11-01T09:22:14.566Z,92.26
2022-11-01T09:26:17.721Z,92.26
2022-11-01T09:30:21.499Z,92.18
2022-11-01T09:34:24.505Z,92.48
2022-11-01T09:38:29.105Z,92.90
2022-11-01T09:42:36.008Z,93.43
2022-11-01T09:46:45.312Z,92.51
2022-11-01T09:50:48.630Z,91.99
2022-11-01T09:54:53.329Z,91.37
2022-11-01T09:59:04.561Z,91.22
2022-11-01T10:03:28.816Z,91.12
2022-11-01T10:07:43.082Z,91.05
2022-11-01T10:12:04.761Z,90.84
2022-11-01T10:16:16.201Z,90.65
2022-11-01T10:20:21.592Z,90.33
2022-11-01T10:24:31.138Z,89.99
2022-11-01T10:28:45.953Z,89.91
2022-11-01T10:32:52.950Z,89.90
2022-11-01T10:37:02.559Z,89.99
2022-11-01T10:41:18.528Z,89.80
2022-11-01T10:45:23.706Z,89.16
2022-11-01T10:50:00.163Z,89.36
2022-11-01T10:53:59.989Z,89.22
2022-11-01T10:58:07.954Z,89.37
2022-11-01T11:02:19.395Z,88.66
2022-11-01T11:06:22.769Z,88.55
2022-11-01T11:10:28.014Z,88.49
2022-11-01T11:14:33.889Z,88.67
2022-11-01T11:18:42.380Z,88.30
2022-11-01T11:22:45.382Z,88.66
2022-11-01T11:26:54.249Z,88.66
2022-11-01T11:30:59.083Z,88.41
2022-11-01T11:35:08.845Z,88.24
2022-11-01T11:39:25.229Z,87.85
2022-11-01T11:43:34.266Z,87.93
2022-11-01T11:47:38.633Z,88.00
2022-11-01T11:51:43.129Z,87.81
2022-11-01T11:55:49.298Z,87.38
2022-11-01T11:59:55.439Z,87.18
2022-11-01T12:04:00.754Z,86.37
2022-11-01T12:08:06.227Z,85.98
2022-11-01T12:12:17.220Z,85.87
2022-11-01T12:16:24.463Z,86.11
2022-11-01T12:20:36.623Z,85.69
2022-11-01T12:24:45.235Z,85.53
2022-11-01T12:28:54.710Z,85.71
2022-11-01T12:33:00.051Z,85.60
2022-11-01T12:37:08.194Z,84.80
2022-11-01T12:41:28.876Z,85.02
2022-11-01T12:45:37.742Z,85.18
2022-11-01T12:49:48.446Z,85.16
2022-11-01T12:53:56.276Z,85.72
2022-11-01T12:58:01.013Z,85.61
2022-11-01T13:02:20.842Z,85.10
2022-11-01T13:06:51.114Z,84.49
2022-11-01T13:10:54.403Z,83.60
2022-11-01T13:15:08.092Z,83.60
2022-11-01T13:19:19.336Z,82.52
2022-11-01T13:23:28.579Z,82.48
2022-11-01T13:27:41.348Z,82.01
2022-11-01T13:32:02.072Z,82.05
2022-11-01T13:36:11.968Z,82.25
2022-11-01T13:40:23.301Z,81.92
2022-11-01T13:44:29.754Z,81.73
2022-11-01T13:48:48.166Z,81.49
2022-11-01T13:52:56.909Z,81.80
2022-11-01T13:57:10.065Z,82.26
2022-11-01T14:01:32.836Z,82.38
2022-11-01T14:05:40.681Z,82.27
2022-11-01T14:09:46.016Z,82.46
2022-11-01T14:13:49.445Z,82.46
2022-11-01T14:18:10.258Z,82.26
2022-11-01T14:22:29.210Z,81.69
2022-11-01T14:26:51.006Z,81.95
2022-11-01T14:30:54.917Z,82.11
2022-11-01T14:35:03.072Z,82.58
2022-11-01T14:39:16.390Z,82.43
2022-11-01T14:43:24.209Z,82.59
2022-11-01T14:47:35.591Z,82.61
2022-11-01T14:51:45.951Z,82.51
2022-11-01T14:55:51.029Z,82.84
2022-11-01T14:59:54.440Z,82.40
2022-11-01T15:03:58.713Z,82.62
2022-11-01T15:08:02.230Z,82.57
2022-11-01T15:12:10.618Z,82.20
2022-11-01T15:16:17.065Z,82.77
2022-11-01T15:20:22.285Z,82.38
2022-11-01T15:24:27.144Z,82.82
2022-11-01T15:28:37.167Z,82.69
2022-11-01T15:32:40.148Z,82.50
2022-11-01T15:36:43.329Z,82.82
2022-11-01T15:40:46.936Z,82.78
2022-11-01T15:44:51.613Z,82.78
2022-11-01T15:48:57.777Z,82.56
2022-11-01T15:53:04.406Z,82.85
2022-11-01T15:57:15.868Z,82.56
2022-11-01T16:01:23.649Z,82.70
2022-11-01T16:05:31.141Z,82.93
2022-11-01T16:09:39.666Z,82.97
2022-11-01T16:13:50.320Z,82.77
2022-11-01T16:17:57.439Z,82.77
2022-11-01T16:22:03.522Z,82.70
2022-11-01T16:26:08.247Z,82.67
2022-11-01T16:30:36.646Z,82.64
2022-11-01T16:34:41.178Z,83.15
2022-11-01T16:38:45.649Z,82.95
2022-11-01T16:42:49.700Z,83.12
2022-11-01T16:46:54.743Z,83.46
2022-11-01T16:51:00.717Z,83.71
2022-11-01T16:55:03.765Z,83.65
2022-11-01T16:59:08.736Z,83.91
2022-11-01T17:03:13.771Z,84.17
2022-11-01T17:07:18.674Z,84.07
2022-11-01T17:11:22.551Z,83.88
2022-11-01T17:15:27.284Z,83.85
2022-11-01T17:19:33.352Z,84.18
2022-11-01T17:23:38.468Z,84.64
2022-11-01T17:27:41.503Z,84.68
2022-11-01T17:31:44.879Z,84.93
2022-11-01T17:35:48.397Z,84.86
2022-11-01T17:39:52.980Z,84.69
2022-11-01T17:43:56.122Z,84.87
2022-11-01T17:47:59.253Z,85.02
2022-11-01T17:52:04.360Z,85.17
2022-11-01T17:56:09.396Z,84.90
2022-11-01T18:00:13.458Z,85.12
2022-11-01T18:04:17.687Z,85.33
2022-11-01T18:08:26.173Z,85.24
2022-11-01T18:12:39.064Z,85.37
2022-11-01T18:16:48.477Z,85.66
2022-11-01T18:21:03.845Z,85.67
2022-11-01T18:25:21.968Z,85.32
2022-11-01T18:29:26.457Z,85.47
2022-11-01T18:33:35.668Z,85.33
2022-11-01T18:37:45.842Z,85.43
2022-11-01T18:41:50.541Z,85.56
2022-11-01T18:46:23.452Z,85.42
2022-11-01T18:50:23.560Z,86.16
2022-11-01T18:54:30.504Z,85.87
2022-11-01T18:58:35.822Z,85.94
2022-11-01T19:02:41.114Z,85.91
2022-11-01T19:06:44.627Z,85.80
2022-11-01T19:10:47.628Z,85.99
2022-11-01T19:14:55.569Z,85.43
2022-11-01T19:19:01.025Z,85.76
2022-11-01T19:23:10.468Z,85.56
2022-11-01T19:27:17.419Z,85.72
2022-11-01T19:31:30.535Z,85.93
2022-11-01T19:35:35.009Z,85.78
2022-11-01T19:39:41.678Z,86.12
2022-11-01T19:43:45.459Z,86.00
2022-11-01T19:47:51.136Z,86.31
2022-11-01T19:52:18.948Z,86.10
2022-11-01T19:56:23.913Z,86.15
2022-11-01T20:00:29.431Z,85.90
2022-11-01T20:04:32.993Z,86.27
2022-11-01T20:08:37.618Z,86.34
2022-11-01T20:12:44.611Z,86.16
2022-11-01T20:16:48.397Z,86.61
2022-11-01T20:20:52.937Z,86.66
2022-11-01T20:24:57.458Z,86.71
2022-11-01T20:29:00.608Z,86.60
2022-11-01T20:33:03.992Z,86.58
2022-11-01T20:37:27.538Z,86.62
2022-11-01T20:41:32.780Z,86.76
2022-11-01T20:45:35.951Z,86.65
2022-11-01T20:49:38.945Z,86.47
2022-11-01T20:53:42.602Z,86.20
2022-11-01T20:57:47.270Z,86.35
2022-11-01T21:01:50.583Z,86.29
2022-11-01T21:05:53.936Z,86.22
2022-11-01T21:09:57.165Z,86.70
2022-11-01T21:14:01.918Z,86.60
2022-11-01T21:18:39.733Z,86.80
2022-11-01T21:22:42.757Z,86.99
2022-11-01T21:26:45.936Z,87.23
2022-11-01T21:30:50.514Z,87.23
2022-11-01T21:34:54.941Z,87.26
2022-11-01T21:38:59.780Z,87.74
2022-11-01T21:43:03.661Z,87.42
2022-11-01T21:47:19.313Z,87.52
2022-11-01T21:51:22.454Z,87.60
2022-11-01T21:55:25.485Z,87.45
2022-11-01T21:59:28.955Z,87.22
2022-11-01T22:03:33.326Z,87.44
2022-11-01T22:07:36.839Z,87.44
2022-11-01T22:11:39.908Z,87.74
2022-11-01T22:15:42.943Z,87.46
2022-11-01T22:19:47.302Z,87.47
2022-11-01T22:23:50.514Z,87.52
2022-11-01T22:27:53.505Z,87.56
2022-11-01T22:31:56.525Z,87.71
2022-11-01T22:36:01.115Z,87.70
2022-11-01T22:40:11.959Z,87.86
2022-11-01T22:44:17.774Z,87.94
2022-11-01T22:48:24.594Z,87.99
2022-11-01T22:52:36.383Z,87.70
2022-11-01T22:56:39.545Z,87.95
2022-11-01T23:00:42.497Z,87.98
2022-11-01T23:04:45.500Z,88.36
2022-11-01T23:08:49.943Z,88.22
2022-11-01T23:13:14.882Z,88.01
2022-11-01T23:17:23.041Z,88.12
2022-11-01T23:21:27.886Z,87.86
2022-11-01T23:25:33.805Z,88.33
2022-11-01T23:29:37.000Z,88.03
2022-11-01T23:33:42.265Z,88.11
2022-11-01T23:37:45.453Z,88.51
2022-11-01T23:41:51.897Z,88.34
2022-11-01T23:45:55.293Z,88.60
2022-11-01T23:50:03.896Z,88.55
2022-11-01T23:54:07.442Z,88.34
2022-11-01T23:58:16.427Z,88.19
